IBE3166 LEMD-EGLL
Flight info
| Callsign | IBE3166 |
|---|---|
| Flight time | N/A |
| Altitude | 32000 |
| Route | SIE N865 DELOG DCT DEGEX DCT JSY DCT REVTU UP87 ROXOG |
| Aircraft | A346/H-SDE2E3FGHIJ3J4J5M1RWXY/LB1D1 |
Departure
| Time | 2026-05-06 14:56 |
|---|---|
| Airport | Adolfo Suárez Madrid–Barajas Airport (LEMD) |
Arrival
| Time | N/A |
|---|---|
| Airport | London Heathrow Airport (EGLL) |
| Time | Latitude | Longitude | Altitude | Speed | Heading |
|---|---|---|---|---|---|
| 2026-05-06 14:07 | 40.49151 | -3.56339 | 1972 ft | 0 kts | 271° |
| 2026-05-06 14:49 | 40.49151 | -3.56402 | 1974 ft | 14 kts | 262° |
| 2026-05-06 14:50 | 40.49100 | -3.56445 | 1979 ft | 14 kts | 187° |
| 2026-05-06 14:50 | 40.48956 | -3.56448 | 1979 ft | 23 kts | 179° |
| 2026-05-06 14:50 | 40.48797 | -3.56460 | 1979 ft | 22 kts | 214° |
| 2026-05-06 14:50 | 40.48770 | -3.56697 | 1985 ft | 30 kts | 267° |
| 2026-05-06 14:51 | 40.48766 | -3.56960 | 1990 ft | 30 kts | 269° |
| 2026-05-06 14:51 | 40.48768 | -3.57181 | 1994 ft | 17 kts | 287° |
| 2026-05-06 14:51 | 40.48860 | -3.57224 | 1992 ft | 21 kts | 356° |
| 2026-05-06 14:51 | 40.49005 | -3.57241 | 1993 ft | 13 kts | 327° |
| 2026-05-06 14:52 | 40.49017 | -3.57256 | 1994 ft | 4 kts | 319° |
| 2026-05-06 14:52 | 40.49028 | -3.57269 | 1994 ft | 2 kts | 319° |
| 2026-05-06 14:52 | 40.49065 | -3.57312 | 1996 ft | 9 kts | 317° |
| 2026-05-06 14:52 | 40.49072 | -3.57321 | 1995 ft | 0 kts | 317° |
| 2026-05-06 14:53 | 40.49086 | -3.57338 | 1995 ft | 12 kts | 316° |
| 2026-05-06 14:53 | 40.49200 | -3.57445 | 1995 ft | 23 kts | 349° |
| 2026-05-06 14:53 | 40.49257 | -3.57450 | 1993 ft | 0 kts | 359° |
| 2026-05-06 14:55 | 40.49261 | -3.57450 | 1993 ft | 8 kts | 359° |
| 2026-05-06 14:55 | 40.49542 | -3.57452 | 1993 ft | 74 kts | 360° |
| 2026-05-06 14:55 | 40.50263 | -3.57460 | 1997 ft | 132 kts | 360° |
| 2026-05-06 14:56 | 40.51350 | -3.57469 | 2004 ft | 179 kts | 359° |
| 2026-05-06 14:56 | 40.52666 | -3.57475 | 2303 ft | 198 kts | 358° |
| 2026-05-06 14:56 | 40.54058 | -3.57490 | 2878 ft | 202 kts | 359° |
| 2026-05-06 14:56 | 40.55453 | -3.57654 | 3594 ft | 202 kts | 341° |
| 2026-05-06 14:57 | 40.56555 | -3.58752 | 4149 ft | 207 kts | 298° |
| 2026-05-06 14:57 | 40.57033 | -3.60596 | 4546 ft | 220 kts | 287° |
| 2026-05-06 14:57 | 40.57869 | -3.62319 | 5010 ft | 230 kts | 319° |
| 2026-05-06 14:57 | 40.59209 | -3.63473 | 5698 ft | 230 kts | 329° |
| 2026-05-06 14:58 | 40.60585 | -3.64569 | 6381 ft | 232 kts | 327° |
| 2026-05-06 14:58 | 40.61924 | -3.65770 | 7016 ft | 234 kts | 324° |
| 2026-05-06 14:58 | 40.63221 | -3.67026 | 7691 ft | 236 kts | 326° |
| 2026-05-06 14:58 | 40.64761 | -3.67750 | 8344 ft | 240 kts | 354° |
| 2026-05-06 14:59 | 40.66469 | -3.67628 | 8806 ft | 255 kts | 6° |
| 2026-05-06 14:59 | 40.68297 | -3.67345 | 9186 ft | 275 kts | 7° |
| 2026-05-06 14:59 | 40.70247 | -3.67030 | 9772 ft | 288 kts | 6° |
| 2026-05-06 14:59 | 40.72255 | -3.66717 | 10543 ft | 294 kts | 6° |
| 2026-05-06 15:00 | 40.74342 | -3.66402 | 11077 ft | 310 kts | 6° |
| 2026-05-06 15:00 | 40.76552 | -3.66075 | 11524 ft | 329 kts | 6° |
| 2026-05-06 15:00 | 40.78887 | -3.65733 | 11974 ft | 347 kts | 6° |
| 2026-05-06 15:00 | 40.81354 | -3.65374 | 12385 ft | 366 kts | 6° |
| 2026-05-06 15:01 | 40.83909 | -3.65004 | 12798 ft | 383 kts | 6° |
| 2026-05-06 15:01 | 40.86601 | -3.64613 | 13442 ft | 392 kts | 6° |
| 2026-05-06 15:01 | 40.89324 | -3.64217 | 14287 ft | 395 kts | 6° |
| 2026-05-06 15:01 | 40.92072 | -3.63815 | 15079 ft | 399 kts | 6° |
| 2026-05-06 15:02 | 40.94843 | -3.63412 | 15858 ft | 403 kts | 5° |
| 2026-05-06 15:02 | 40.97642 | -3.63005 | 16633 ft | 407 kts | 5° |
| 2026-05-06 15:02 | 41.00466 | -3.62596 | 17394 ft | 411 kts | 5° |
| 2026-05-06 15:02 | 41.03321 | -3.62182 | 18154 ft | 415 kts | 5° |
| 2026-05-06 15:03 | 41.06161 | -3.61769 | 18800 ft | 419 kts | 5° |
| 2026-05-06 15:03 | 41.09075 | -3.61345 | 19455 ft | 423 kts | 5° |
| 2026-05-06 15:03 | 41.12011 | -3.60918 | 20135 ft | 426 kts | 4° |
| 2026-05-06 15:03 | 41.14968 | -3.60486 | 20810 ft | 430 kts | 4° |
| 2026-05-06 15:04 | 41.17959 | -3.60157 | 21432 ft | 433 kts | 1° |
| 2026-05-06 15:04 | 41.20980 | -3.60058 | 22049 ft | 436 kts | 357° |
| 2026-05-06 15:04 | 41.24017 | -3.60201 | 22673 ft | 438 kts | 353° |
| 2026-05-06 15:04 | 41.27028 | -3.60518 | 23289 ft | 442 kts | 353° |
| 2026-05-06 15:05 | 41.30114 | -3.60751 | 23838 ft | 447 kts | 355° |
| 2026-05-06 15:05 | 41.33234 | -3.60886 | 24339 ft | 451 kts | 356° |
| 2026-05-06 15:05 | 41.36381 | -3.60986 | 24848 ft | 454 kts | 356° |
| 2026-05-06 15:05 | 41.39547 | -3.61069 | 25365 ft | 457 kts | 356° |
| 2026-05-06 15:06 | 41.42742 | -3.61148 | 25876 ft | 461 kts | 356° |
| 2026-05-06 15:06 | 41.45955 | -3.61226 | 26411 ft | 463 kts | 356° |
| 2026-05-06 15:06 | 41.49168 | -3.61305 | 27120 ft | 461 kts | 356° |
| 2026-05-06 15:06 | 41.52365 | -3.61357 | 27911 ft | 458 kts | 357° |
| 2026-05-06 15:07 | 41.55502 | -3.61340 | 28674 ft | 455 kts | 357° |
| 2026-05-06 15:07 | 41.58660 | -3.61325 | 29422 ft | 453 kts | 356° |
| 2026-05-06 15:07 | 41.61809 | -3.61321 | 30124 ft | 452 kts | 356° |
| 2026-05-06 15:07 | 41.64943 | -3.61383 | 30671 ft | 450 kts | 353° |
| 2026-05-06 15:08 | 41.68060 | -3.61733 | 31148 ft | 450 kts | 350° |
| 2026-05-06 15:08 | 41.71180 | -3.62185 | 31563 ft | 452 kts | 350° |
| 2026-05-06 15:08 | 41.74313 | -3.62651 | 31920 ft | 455 kts | 350° |
| 2026-05-06 15:09 | 41.80622 | -3.63556 | 31966 ft | 456 kts | 350° |
| 2026-05-06 15:09 | 41.86896 | -3.64418 | 31969 ft | 456 kts | 351° |
| 2026-05-06 15:10 | 41.93213 | -3.65272 | 31991 ft | 456 kts | 351° |
| 2026-05-06 15:10 | 41.99518 | -3.66123 | 31977 ft | 455 kts | 351° |
| 2026-05-06 15:11 | 42.05810 | -3.66970 | 31976 ft | 455 kts | 351° |
| 2026-05-06 15:11 | 42.12101 | -3.67819 | 31975 ft | 455 kts | 351° |
| 2026-05-06 15:12 | 42.18349 | -3.68664 | 31968 ft | 454 kts | 351° |
| 2026-05-06 15:12 | 42.24629 | -3.69514 | 32005 ft | 453 kts | 351° |
| 2026-05-06 15:13 | 42.30907 | -3.70366 | 31999 ft | 453 kts | 351° |
| 2026-05-06 15:13 | 42.37180 | -3.71220 | 32009 ft | 453 kts | 351° |
| 2026-05-06 15:14 | 42.43449 | -3.72075 | 32008 ft | 452 kts | 351° |
| 2026-05-06 15:14 | 42.49672 | -3.72923 | 32001 ft | 452 kts | 351° |
| 2026-05-06 15:15 | 42.55937 | -3.73780 | 32010 ft | 452 kts | 351° |
| 2026-05-06 15:15 | 42.62197 | -3.74641 | 32007 ft | 452 kts | 351° |
| 2026-05-06 15:16 | 42.68458 | -3.75499 | 32011 ft | 452 kts | 351° |
| 2026-05-06 15:16 | 42.74677 | -3.76354 | 32015 ft | 452 kts | 351° |
| 2026-05-06 15:17 | 42.80938 | -3.77217 | 32021 ft | 452 kts | 351° |
| 2026-05-06 15:17 | 42.87196 | -3.78081 | 32019 ft | 452 kts | 351° |
| 2026-05-06 15:18 | 42.93462 | -3.78948 | 32021 ft | 452 kts | 351° |
| 2026-05-06 15:18 | 42.99677 | -3.79813 | 32032 ft | 452 kts | 351° |
| 2026-05-06 15:19 | 43.05936 | -3.80683 | 32038 ft | 452 kts | 351° |
| 2026-05-06 15:19 | 43.12194 | -3.81554 | 32038 ft | 452 kts | 351° |
| 2026-05-06 15:20 | 43.18458 | -3.82430 | 32042 ft | 452 kts | 352° |
| 2026-05-06 15:20 | 43.24722 | -3.83307 | 32032 ft | 452 kts | 352° |
| 2026-05-06 15:21 | 43.30945 | -3.84178 | 32030 ft | 452 kts | 352° |
| 2026-05-06 15:21 | 43.37204 | -3.85056 | 32036 ft | 452 kts | 352° |
| 2026-05-06 15:22 | 43.43463 | -3.85938 | 32031 ft | 452 kts | 352° |
| 2026-05-06 15:22 | 43.49720 | -3.86820 | 32033 ft | 452 kts | 352° |
| 2026-05-06 15:23 | 43.55881 | -3.87691 | 32033 ft | 452 kts | 352° |
| 2026-05-06 15:23 | 43.62004 | -3.88559 | 32036 ft | 451 kts | 352° |
| 2026-05-06 15:24 | 43.68032 | -3.89414 | 32035 ft | 451 kts | 352° |
| 2026-05-06 15:24 | 43.74190 | -3.90290 | 32034 ft | 451 kts | 352° |
| 2026-05-06 15:25 | 43.79797 | -3.91090 | 32029 ft | 451 kts | 352° |
| 2026-05-06 15:25 | 43.86026 | -3.91979 | 32028 ft | 451 kts | 352° |
| 2026-05-06 15:26 | 43.92196 | -3.92861 | 32025 ft | 451 kts | 352° |
| 2026-05-06 15:26 | 43.98421 | -3.93755 | 32030 ft | 450 kts | 352° |
| 2026-05-06 15:27 | 44.04578 | -3.94640 | 32024 ft | 450 kts | 352° |
| 2026-05-06 15:27 | 44.10783 | -3.95532 | 32023 ft | 450 kts | 352° |
| 2026-05-06 15:28 | 44.17002 | -3.96429 | 32032 ft | 450 kts | 352° |
| 2026-05-06 15:28 | 44.23219 | -3.97330 | 32024 ft | 449 kts | 352° |
| 2026-05-06 15:29 | 44.29376 | -3.98016 | 32025 ft | 450 kts | 356° |
| 2026-05-06 15:29 | 44.35597 | -3.97832 | 32029 ft | 452 kts | 2° |
| 2026-05-06 15:30 | 44.41840 | -3.96726 | 32025 ft | 453 kts | 7° |
| 2026-05-06 15:30 | 44.48057 | -3.95291 | 32023 ft | 452 kts | 7° |
| 2026-05-06 15:31 | 44.54266 | -3.93846 | 32022 ft | 452 kts | 7° |
| 2026-05-06 15:31 | 44.60432 | -3.92419 | 32022 ft | 452 kts | 7° |
| 2026-05-06 15:32 | 44.69740 | -3.90263 | 32021 ft | 452 kts | 7° |
| 2026-05-06 15:32 | 44.75948 | -3.88823 | 32024 ft | 452 kts | 7° |
| 2026-05-06 15:33 | 44.82150 | -3.87382 | 32022 ft | 452 kts | 7° |
| 2026-05-06 15:33 | 44.88316 | -3.85946 | 32024 ft | 452 kts | 7° |
| 2026-05-06 15:34 | 44.94519 | -3.84498 | 32024 ft | 452 kts | 7° |
| 2026-05-06 15:34 | 45.00704 | -3.83052 | 32029 ft | 452 kts | 7° |
| 2026-05-06 15:35 | 45.06901 | -3.81599 | 32017 ft | 451 kts | 7° |
| 2026-05-06 15:35 | 45.10011 | -3.80872 | 30579 ft | 463 kts | 7° |
| 2026-05-06 15:35 | 45.13326 | -3.80053 | 28000 ft | 506 kts | 8° |
| 2026-05-06 15:36 | 45.16668 | -3.79267 | 28080 ft | 480 kts | 357° |
| 2026-05-06 15:36 | 45.19497 | -3.81250 | 25802 ft | 485 kts | 296° |
| 2026-05-06 15:36 | 45.19729 | -3.85606 | 26449 ft | 433 kts | 241° |